sensor_id;sensor_type;location;lat;lon;timestamp;P1;durP1;ratioP1;P2;durP2;ratioP2
2622;SDS011;1321;48.690;9.022;2022-12-18T00:02:23;46.88;;;29.10;;
2622;SDS011;1321;48.690;9.022;2022-12-18T00:04:52;55.33;;;30.23;;
2622;SDS011;1321;48.690;9.022;2022-12-18T00:07:20;45.70;;;29.67;;
2622;SDS011;1321;48.690;9.022;2022-12-18T00:09:48;52.63;;;30.67;;
2622;SDS011;1321;48.690;9.022;2022-12-18T00:12:17;49.95;;;30.23;;
2622;SDS011;1321;48.690;9.022;2022-12-18T00:14:45;49.35;;;28.63;;
2622;SDS011;1321;48.690;9.022;2022-12-18T00:17:13;52.13;;;30.98;;
2622;SDS011;1321;48.690;9.022;2022-12-18T00:19:42;49.95;;;29.48;;
2622;SDS011;1321;48.690;9.022;2022-12-18T00:22:10;55.45;;;28.75;;
2622;SDS011;1321;48.690;9.022;2022-12-18T00:24:38;43.85;;;28.75;;
2622;SDS011;1321;48.690;9.022;2022-12-18T00:27:06;48.65;;;29.20;;
2622;SDS011;1321;48.690;9.022;2022-12-18T00:32:43;44.50;;;27.08;;
2622;SDS011;1321;48.690;9.022;2022-12-18T00:35:17;51.30;;;27.23;;
2622;SDS011;1321;48.690;9.022;2022-12-18T00:37:45;48.70;;;28.10;;
2622;SDS011;1321;48.690;9.022;2022-12-18T00:40:13;46.05;;;29.45;;
2622;SDS011;1321;48.690;9.022;2022-12-18T00:42:41;45.67;;;29.17;;
2622;SDS011;1321;48.690;9.022;2022-12-18T00:45:25;54.33;;;29.35;;
2622;SDS011;1321;48.690;9.022;2022-12-18T00:47:55;49.70;;;28.95;;
2622;SDS011;1321;48.690;9.022;2022-12-18T00:50:24;42.55;;;28.58;;
2622;SDS011;1321;48.690;9.022;2022-12-18T00:52:53;46.80;;;27.85;;
2622;SDS011;1321;48.690;9.022;2022-12-18T00:55:21;54.80;;;27.88;;
2622;SDS011;1321;48.690;9.022;2022-12-18T00:57:50;42.95;;;27.50;;
2622;SDS011;1321;48.690;9.022;2022-12-18T01:00:19;43.03;;;25.42;;
2622;SDS011;1321;48.690;9.022;2022-12-18T01:02:48;44.65;;;25.85;;
2622;SDS011;1321;48.690;9.022;2022-12-18T01:05:17;45.17;;;25.33;;
2622;SDS011;1321;48.690;9.022;2022-12-18T01:07:45;42.38;;;27.73;;
2622;SDS011;1321;48.690;9.022;2022-12-18T01:10:13;45.10;;;28.05;;
2622;SDS011;1321;48.690;9.022;2022-12-18T01:12:41;37.33;;;23.50;;
2622;SDS011;1321;48.690;9.022;2022-12-18T01:15:10;39.85;;;24.00;;
2622;SDS011;1321;48.690;9.022;2022-12-18T01:17:40;41.55;;;24.95;;
2622;SDS011;1321;48.690;9.022;2022-12-18T01:20:11;41.28;;;23.70;;
2622;SDS011;1321;48.690;9.022;2022-12-18T01:22:40;39.92;;;26.10;;
2622;SDS011;1321;48.690;9.022;2022-12-18T01:25:08;43.45;;;24.48;;
2622;SDS011;1321;48.690;9.022;2022-12-18T01:27:36;34.80;;;23.98;;
2622;SDS011;1321;48.690;9.022;2022-12-18T01:30:04;33.95;;;22.30;;
2622;SDS011;1321;48.690;9.022;2022-12-18T01:32:34;31.02;;;20.15;;
2622;SDS011;1321;48.690;9.022;2022-12-18T01:35:02;42.00;;;21.80;;
2622;SDS011;1321;48.690;9.022;2022-12-18T01:37:32;24.85;;;16.23;;
2622;SDS011;1321;48.690;9.022;2022-12-18T01:40:00;32.03;;;15.90;;
2622;SDS011;1321;48.690;9.022;2022-12-18T01:42:28;28.15;;;15.05;;
2622;SDS011;1321;48.690;9.022;2022-12-18T01:45:01;25.90;;;15.65;;
2622;SDS011;1321;48.690;9.022;2022-12-18T01:47:33;31.65;;;16.58;;
2622;SDS011;1321;48.690;9.022;2022-12-18T01:50:05;26.23;;;13.98;;
2622;SDS011;1321;48.690;9.022;2022-12-18T01:52:39;28.30;;;16.17;;
2622;SDS011;1321;48.690;9.022;2022-12-18T01:55:10;20.77;;;16.20;;
2622;SDS011;1321;48.690;9.022;2022-12-18T01:57:39;25.02;;;16.38;;
2622;SDS011;1321;48.690;9.022;2022-12-18T02:00:09;26.60;;;15.23;;
2622;SDS011;1321;48.690;9.022;2022-12-18T02:02:40;24.92;;;15.90;;
2622;SDS011;1321;48.690;9.022;2022-12-18T02:05:10;28.70;;;14.80;;
2622;SDS011;1321;48.690;9.022;2022-12-18T02:07:45;25.35;;;15.75;;
2622;SDS011;1321;48.690;9.022;2022-12-18T02:10:24;23.95;;;15.00;;
2622;SDS011;1321;48.690;9.022;2022-12-18T02:12:56;23.77;;;15.40;;
2622;SDS011;1321;48.690;9.022;2022-12-18T02:15:37;26.00;;;15.10;;
2622;SDS011;1321;48.690;9.022;2022-12-18T02:18:08;32.03;;;16.08;;
2622;SDS011;1321;48.690;9.022;2022-12-18T02:20:41;25.00;;;14.25;;
2622;SDS011;1321;48.690;9.022;2022-12-18T02:23:19;22.77;;;14.20;;
2622;SDS011;1321;48.690;9.022;2022-12-18T02:26:08;23.35;;;13.40;;
2622;SDS011;1321;48.690;9.022;2022-12-18T02:28:46;30.52;;;15.43;;
2622;SDS011;1321;48.690;9.022;2022-12-18T02:31:21;26.58;;;15.25;;
2622;SDS011;1321;48.690;9.022;2022-12-18T02:33:52;28.23;;;14.50;;
2622;SDS011;1321;48.690;9.022;2022-12-18T02:36:23;26.45;;;14.02;;
2622;SDS011;1321;48.690;9.022;2022-12-18T02:38:54;30.48;;;18.10;;
2622;SDS011;1321;48.690;9.022;2022-12-18T02:41:25;32.25;;;18.90;;
2622;SDS011;1321;48.690;9.022;2022-12-18T02:43:55;34.45;;;19.63;;
2622;SDS011;1321;48.690;9.022;2022-12-18T02:46:32;31.05;;;18.45;;
2622;SDS011;1321;48.690;9.022;2022-12-18T02:49:06;31.65;;;16.75;;
2622;SDS011;1321;48.690;9.022;2022-12-18T02:51:48;23.35;;;15.75;;
2622;SDS011;1321;48.690;9.022;2022-12-18T02:54:22;24.02;;;14.82;;
2622;SDS011;1321;48.690;9.022;2022-12-18T02:57:01;27.80;;;15.52;;
2622;SDS011;1321;48.690;9.022;2022-12-18T02:59:39;27.83;;;16.20;;
2622;SDS011;1321;48.690;9.022;2022-12-18T03:02:16;29.20;;;17.25;;
2622;SDS011;1321;48.690;9.022;2022-12-18T03:04:49;23.25;;;14.57;;
2622;SDS011;1321;48.690;9.022;2022-12-18T03:07:26;28.23;;;15.20;;
2622;SDS011;1321;48.690;9.022;2022-12-18T03:10:01;22.55;;;13.68;;
2622;SDS011;1321;48.690;9.022;2022-12-18T03:12:31;22.23;;;13.35;;
2622;SDS011;1321;48.690;9.022;2022-12-18T03:15:03;16.42;;;11.27;;
2622;SDS011;1321;48.690;9.022;2022-12-18T03:17:44;18.27;;;12.27;;
2622;SDS011;1321;48.690;9.022;2022-12-18T03:20:18;17.25;;;11.05;;
2622;SDS011;1321;48.690;9.022;2022-12-18T03:22:50;19.77;;;12.93;;
2622;SDS011;1321;48.690;9.022;2022-12-18T03:25:21;20.42;;;12.45;;
2622;SDS011;1321;48.690;9.022;2022-12-18T03:27:51;19.98;;;12.57;;
2622;SDS011;1321;48.690;9.022;2022-12-18T03:30:24;21.77;;;13.40;;
2622;SDS011;1321;48.690;9.022;2022-12-18T03:32:55;17.25;;;10.68;;
2622;SDS011;1321;48.690;9.022;2022-12-18T03:35:29;16.25;;;11.07;;
2622;SDS011;1321;48.690;9.022;2022-12-18T03:38:00;20.17;;;13.55;;
2622;SDS011;1321;48.690;9.022;2022-12-18T03:40:29;20.05;;;11.57;;
2622;SDS011;1321;48.690;9.022;2022-12-18T03:43:08;18.13;;;12.20;;
2622;SDS011;1321;48.690;9.022;2022-12-18T03:45:41;19.92;;;12.43;;
2622;SDS011;1321;48.690;9.022;2022-12-18T03:48:16;17.45;;;10.93;;
2622;SDS011;1321;48.690;9.022;2022-12-18T03:50:48;22.60;;;12.57;;
2622;SDS011;1321;48.690;9.022;2022-12-18T03:53:22;22.30;;;13.23;;
2622;SDS011;1321;48.690;9.022;2022-12-18T03:55:58;22.35;;;13.32;;
2622;SDS011;1321;48.690;9.022;2022-12-18T03:58:29;17.98;;;12.50;;
2622;SDS011;1321;48.690;9.022;2022-12-18T04:01:01;19.77;;;10.05;;
2622;SDS011;1321;48.690;9.022;2022-12-18T04:03:33;23.90;;;12.20;;
2622;SDS011;1321;48.690;9.022;2022-12-18T04:06:03;17.50;;;12.13;;
2622;SDS011;1321;48.690;9.022;2022-12-18T04:08:32;22.50;;;12.70;;
2622;SDS011;1321;48.690;9.022;2022-12-18T04:11:02;16.00;;;11.63;;
2622;SDS011;1321;48.690;9.022;2022-12-18T04:13:33;21.88;;;12.77;;
2622;SDS011;1321;48.690;9.022;2022-12-18T04:16:04;21.17;;;12.25;;
2622;SDS011;1321;48.690;9.022;2022-12-18T04:18:32;20.55;;;14.35;;
2622;SDS011;1321;48.690;9.022;2022-12-18T04:21:01;20.63;;;13.23;;
2622;SDS011;1321;48.690;9.022;2022-12-18T04:23:29;17.42;;;12.40;;
2622;SDS011;1321;48.690;9.022;2022-12-18T04:25:57;18.20;;;11.65;;
2622;SDS011;1321;48.690;9.022;2022-12-18T04:28:25;15.07;;;10.77;;
2622;SDS011;1321;48.690;9.022;2022-12-18T04:30:55;19.02;;;12.48;;
2622;SDS011;1321;48.690;9.022;2022-12-18T04:33:23;20.67;;;11.73;;
2622;SDS011;1321;48.690;9.022;2022-12-18T04:35:51;21.55;;;11.95;;
2622;SDS011;1321;48.690;9.022;2022-12-18T04:38:19;18.73;;;11.40;;
2622;SDS011;1321;48.690;9.022;2022-12-18T04:40:47;19.05;;;12.88;;
2622;SDS011;1321;48.690;9.022;2022-12-18T04:43:16;21.58;;;12.25;;
2622;SDS011;1321;48.690;9.022;2022-12-18T04:45:44;20.58;;;12.55;;
2622;SDS011;1321;48.690;9.022;2022-12-18T04:48:13;22.27;;;12.02;;
2622;SDS011;1321;48.690;9.022;2022-12-18T04:50:41;19.70;;;12.20;;
2622;SDS011;1321;48.690;9.022;2022-12-18T04:53:10;17.90;;;11.70;;
2622;SDS011;1321;48.690;9.022;2022-12-18T04:55:38;22.92;;;12.88;;
2622;SDS011;1321;48.690;9.022;2022-12-18T04:58:06;24.00;;;13.35;;
2622;SDS011;1321;48.690;9.022;2022-12-18T05:00:34;21.58;;;12.43;;
2622;SDS011;1321;48.690;9.022;2022-12-18T05:03:03;22.50;;;13.13;;
2622;SDS011;1321;48.690;9.022;2022-12-18T05:05:33;23.45;;;12.68;;
2622;SDS011;1321;48.690;9.022;2022-12-18T05:08:02;19.95;;;12.18;;
2622;SDS011;1321;48.690;9.022;2022-12-18T05:10:30;19.15;;;11.20;;
2622;SDS011;1321;48.690;9.022;2022-12-18T05:13:03;20.05;;;12.27;;
2622;SDS011;1321;48.690;9.022;2022-12-18T05:15:32;20.55;;;12.77;;
2622;SDS011;1321;48.690;9.022;2022-12-18T05:18:01;19.60;;;11.50;;
2622;SDS011;1321;48.690;9.022;2022-12-18T05:20:30;17.95;;;11.90;;
2622;SDS011;1321;48.690;9.022;2022-12-18T05:23:00;22.35;;;13.05;;
2622;SDS011;1321;48.690;9.022;2022-12-18T05:25:28;19.05;;;10.13;;
2622;SDS011;1321;48.690;9.022;2022-12-18T05:27:56;22.48;;;12.07;;
2622;SDS011;1321;48.690;9.022;2022-12-18T05:30:25;16.73;;;10.63;;
2622;SDS011;1321;48.690;9.022;2022-12-18T05:32:53;24.20;;;15.65;;
2622;SDS011;1321;48.690;9.022;2022-12-18T05:35:21;22.05;;;13.77;;
2622;SDS011;1321;48.690;9.022;2022-12-18T05:37:51;21.55;;;11.85;;
2622;SDS011;1321;48.690;9.022;2022-12-18T05:40:19;20.70;;;11.85;;
2622;SDS011;1321;48.690;9.022;2022-12-18T05:42:47;19.73;;;11.48;;
2622;SDS011;1321;48.690;9.022;2022-12-18T05:45:16;20.65;;;11.10;;
2622;SDS011;1321;48.690;9.022;2022-12-18T05:47:44;18.92;;;12.93;;
2622;SDS011;1321;48.690;9.022;2022-12-18T05:50:12;23.80;;;13.98;;
2622;SDS011;1321;48.690;9.022;2022-12-18T05:52:40;21.88;;;11.73;;
2622;SDS011;1321;48.690;9.022;2022-12-18T05:55:09;23.65;;;11.52;;
2622;SDS011;1321;48.690;9.022;2022-12-18T05:57:37;20.02;;;11.32;;
2622;SDS011;1321;48.690;9.022;2022-12-18T06:00:06;19.90;;;11.55;;
2622;SDS011;1321;48.690;9.022;2022-12-18T06:02:35;19.48;;;12.32;;
2622;SDS011;1321;48.690;9.022;2022-12-18T06:05:04;26.65;;;14.73;;
2622;SDS011;1321;48.690;9.022;2022-12-18T06:07:33;19.95;;;11.52;;
2622;SDS011;1321;48.690;9.022;2022-12-18T06:10:01;23.98;;;12.55;;
2622;SDS011;1321;48.690;9.022;2022-12-18T06:12:31;20.40;;;11.93;;
2622;SDS011;1321;48.690;9.022;2022-12-18T06:15:00;21.48;;;12.05;;
2622;SDS011;1321;48.690;9.022;2022-12-18T06:17:28;19.98;;;11.73;;
2622;SDS011;1321;48.690;9.022;2022-12-18T06:19:56;20.48;;;12.77;;
2622;SDS011;1321;48.690;9.022;2022-12-18T06:22:25;24.60;;;12.20;;
2622;SDS011;1321;48.690;9.022;2022-12-18T06:24:53;22.33;;;11.00;;
2622;SDS011;1321;48.690;9.022;2022-12-18T06:27:21;22.95;;;12.82;;
2622;SDS011;1321;48.690;9.022;2022-12-18T06:29:51;21.40;;;13.70;;
2622;SDS011;1321;48.690;9.022;2022-12-18T06:32:19;22.13;;;13.70;;
2622;SDS011;1321;48.690;9.022;2022-12-18T06:34:48;20.27;;;11.07;;
2622;SDS011;1321;48.690;9.022;2022-12-18T06:37:16;21.90;;;12.30;;
2622;SDS011;1321;48.690;9.022;2022-12-18T06:39:44;26.27;;;12.30;;
2622;SDS011;1321;48.690;9.022;2022-12-18T06:42:13;23.70;;;12.90;;
2622;SDS011;1321;48.690;9.022;2022-12-18T06:44:41;26.10;;;13.25;;
2622;SDS011;1321;48.690;9.022;2022-12-18T06:47:10;22.52;;;13.07;;
2622;SDS011;1321;48.690;9.022;2022-12-18T06:49:39;20.70;;;13.23;;
2622;SDS011;1321;48.690;9.022;2022-12-18T06:52:07;22.88;;;13.43;;
2622;SDS011;1321;48.690;9.022;2022-12-18T06:54:35;23.17;;;11.55;;
2622;SDS011;1321;48.690;9.022;2022-12-18T06:57:04;24.50;;;12.50;;
2622;SDS011;1321;48.690;9.022;2022-12-18T06:59:32;19.98;;;12.98;;
2622;SDS011;1321;48.690;9.022;2022-12-18T07:02:00;23.10;;;13.60;;
2622;SDS011;1321;48.690;9.022;2022-12-18T07:04:30;26.63;;;14.57;;
2622;SDS011;1321;48.690;9.022;2022-12-18T07:06:59;21.55;;;14.13;;
2622;SDS011;1321;48.690;9.022;2022-12-18T07:09:27;23.00;;;12.55;;
2622;SDS011;1321;48.690;9.022;2022-12-18T07:11:55;23.90;;;13.27;;
2622;SDS011;1321;48.690;9.022;2022-12-18T07:14:23;29.95;;;14.35;;
2622;SDS011;1321;48.690;9.022;2022-12-18T07:16:51;20.63;;;12.57;;
2622;SDS011;1321;48.690;9.022;2022-12-18T07:19:19;24.02;;;14.48;;
2622;SDS011;1321;48.690;9.022;2022-12-18T07:21:50;23.20;;;13.85;;
2622;SDS011;1321;48.690;9.022;2022-12-18T07:24:19;26.10;;;17.77;;
2622;SDS011;1321;48.690;9.022;2022-12-18T07:26:47;28.20;;;15.90;;
2622;SDS011;1321;48.690;9.022;2022-12-18T07:29:15;21.48;;;13.48;;
2622;SDS011;1321;48.690;9.022;2022-12-18T07:31:43;30.52;;;18.08;;
2622;SDS011;1321;48.690;9.022;2022-12-18T07:34:12;23.65;;;15.00;;
2622;SDS011;1321;48.690;9.022;2022-12-18T07:36:41;24.67;;;13.50;;
2622;SDS011;1321;48.690;9.022;2022-12-18T07:39:11;20.08;;;12.57;;
2622;SDS011;1321;48.690;9.022;2022-12-18T07:41:39;26.77;;;14.40;;
2622;SDS011;1321;48.690;9.022;2022-12-18T07:44:12;18.70;;;12.25;;
2622;SDS011;1321;48.690;9.022;2022-12-18T07:46:42;21.38;;;15.05;;
2622;SDS011;1321;48.690;9.022;2022-12-18T07:49:10;29.50;;;14.38;;
2622;SDS011;1321;48.690;9.022;2022-12-18T07:51:38;25.75;;;15.38;;
2622;SDS011;1321;48.690;9.022;2022-12-18T07:54:06;23.92;;;14.75;;
2622;SDS011;1321;48.690;9.022;2022-12-18T07:56:36;27.30;;;16.13;;
2622;SDS011;1321;48.690;9.022;2022-12-18T07:59:04;26.42;;;16.02;;
2622;SDS011;1321;48.690;9.022;2022-12-18T08:01:32;23.63;;;12.88;;
2622;SDS011;1321;48.690;9.022;2022-12-18T08:04:01;20.92;;;13.75;;
2622;SDS011;1321;48.690;9.022;2022-12-18T08:06:29;27.63;;;16.15;;
2622;SDS011;1321;48.690;9.022;2022-12-18T08:08:58;23.38;;;14.50;;
2622;SDS011;1321;48.690;9.022;2022-12-18T08:11:27;30.45;;;15.50;;
2622;SDS011;1321;48.690;9.022;2022-12-18T08:13:57;24.40;;;13.60;;
2622;SDS011;1321;48.690;9.022;2022-12-18T08:16:25;22.33;;;13.95;;
2622;SDS011;1321;48.690;9.022;2022-12-18T08:18:54;30.45;;;17.15;;
2622;SDS011;1321;48.690;9.022;2022-12-18T08:21:23;24.48;;;15.00;;
2622;SDS011;1321;48.690;9.022;2022-12-18T08:23:53;27.17;;;16.05;;
2622;SDS011;1321;48.690;9.022;2022-12-18T08:26:24;25.83;;;14.70;;
2622;SDS011;1321;48.690;9.022;2022-12-18T08:28:54;22.90;;;15.73;;
2622;SDS011;1321;48.690;9.022;2022-12-18T08:31:25;27.70;;;15.32;;
2622;SDS011;1321;48.690;9.022;2022-12-18T08:33:55;29.83;;;16.67;;
2622;SDS011;1321;48.690;9.022;2022-12-18T08:36:23;24.55;;;14.45;;
2622;SDS011;1321;48.690;9.022;2022-12-18T08:38:52;26.65;;;15.35;;
2622;SDS011;1321;48.690;9.022;2022-12-18T08:41:21;20.73;;;14.68;;
2622;SDS011;1321;48.690;9.022;2022-12-18T08:43:49;24.02;;;12.40;;
2622;SDS011;1321;48.690;9.022;2022-12-18T08:46:37;24.65;;;15.27;;
2622;SDS011;1321;48.690;9.022;2022-12-18T08:49:07;28.30;;;15.85;;
2622;SDS011;1321;48.690;9.022;2022-12-18T08:51:36;25.10;;;14.65;;
2622;SDS011;1321;48.690;9.022;2022-12-18T08:54:05;31.35;;;16.25;;
2622;SDS011;1321;48.690;9.022;2022-12-18T08:56:33;20.45;;;13.25;;
2622;SDS011;1321;48.690;9.022;2022-12-18T08:59:02;34.75;;;16.52;;
2622;SDS011;1321;48.690;9.022;2022-12-18T09:01:32;25.63;;;15.05;;
2622;SDS011;1321;48.690;9.022;2022-12-18T09:04:02;23.90;;;13.65;;
2622;SDS011;1321;48.690;9.022;2022-12-18T09:06:32;25.73;;;14.77;;
2622;SDS011;1321;48.690;9.022;2022-12-18T09:09:01;28.63;;;15.57;;
2622;SDS011;1321;48.690;9.022;2022-12-18T09:11:30;24.25;;;15.55;;
2622;SDS011;1321;48.690;9.022;2022-12-18T09:14:00;27.50;;;16.23;;
2622;SDS011;1321;48.690;9.022;2022-12-18T09:16:28;26.73;;;16.70;;
2622;SDS011;1321;48.690;9.022;2022-12-18T09:18:58;24.38;;;14.68;;
2622;SDS011;1321;48.690;9.022;2022-12-18T09:21:29;24.15;;;15.70;;
2622;SDS011;1321;48.690;9.022;2022-12-18T09:24:02;24.15;;;13.02;;
2622;SDS011;1321;48.690;9.022;2022-12-18T09:26:34;22.65;;;13.65;;
2622;SDS011;1321;48.690;9.022;2022-12-18T09:29:03;25.20;;;14.35;;
2622;SDS011;1321;48.690;9.022;2022-12-18T09:31:33;23.75;;;13.75;;
2622;SDS011;1321;48.690;9.022;2022-12-18T09:34:04;25.20;;;13.25;;
2622;SDS011;1321;48.690;9.022;2022-12-18T09:36:34;32.17;;;15.80;;
2622;SDS011;1321;48.690;9.022;2022-12-18T09:39:02;30.23;;;15.52;;
2622;SDS011;1321;48.690;9.022;2022-12-18T09:41:39;25.73;;;14.27;;
2622;SDS011;1321;48.690;9.022;2022-12-18T09:44:13;20.10;;;13.32;;
2622;SDS011;1321;48.690;9.022;2022-12-18T09:46:51;22.75;;;12.70;;
2622;SDS011;1321;48.690;9.022;2022-12-18T09:49:26;22.55;;;13.57;;
2622;SDS011;1321;48.690;9.022;2022-12-18T09:52:00;27.73;;;14.45;;
2622;SDS011;1321;48.690;9.022;2022-12-18T09:54:35;22.27;;;13.07;;
2622;SDS011;1321;48.690;9.022;2022-12-18T09:57:09;24.90;;;14.45;;
2622;SDS011;1321;48.690;9.022;2022-12-18T09:59:41;21.70;;;13.00;;
2622;SDS011;1321;48.690;9.022;2022-12-18T10:02:14;24.42;;;16.02;;
2622;SDS011;1321;48.690;9.022;2022-12-18T10:04:45;28.33;;;17.33;;
2622;SDS011;1321;48.690;9.022;2022-12-18T10:07:22;26.85;;;15.52;;
2622;SDS011;1321;48.690;9.022;2022-12-18T10:10:01;28.42;;;17.88;;
2622;SDS011;1321;48.690;9.022;2022-12-18T10:12:36;26.83;;;17.73;;
2622;SDS011;1321;48.690;9.022;2022-12-18T10:15:11;22.17;;;15.60;;
2622;SDS011;1321;48.690;9.022;2022-12-18T10:17:48;25.60;;;15.90;;
2622;SDS011;1321;48.690;9.022;2022-12-18T10:20:24;26.63;;;17.45;;
2622;SDS011;1321;48.690;9.022;2022-12-18T10:23:01;25.50;;;15.18;;
2622;SDS011;1321;48.690;9.022;2022-12-18T10:25:34;26.50;;;17.30;;
2622;SDS011;1321;48.690;9.022;2022-12-18T10:28:09;25.65;;;17.52;;
2622;SDS011;1321;48.690;9.022;2022-12-18T10:30:40;26.17;;;14.05;;
2622;SDS011;1321;48.690;9.022;2022-12-18T10:33:10;25.73;;;16.92;;
2622;SDS011;1321;48.690;9.022;2022-12-18T10:35:40;25.43;;;17.63;;
2622;SDS011;1321;48.690;9.022;2022-12-18T10:38:21;26.83;;;18.23;;
2622;SDS011;1321;48.690;9.022;2022-12-18T10:40:53;25.70;;;17.27;;
2622;SDS011;1321;48.690;9.022;2022-12-18T10:43:23;22.17;;;14.82;;
2622;SDS011;1321;48.690;9.022;2022-12-18T10:46:04;23.92;;;16.13;;
2622;SDS011;1321;48.690;9.022;2022-12-18T10:48:47;20.85;;;12.50;;
2622;SDS011;1321;48.690;9.022;2022-12-18T10:51:19;22.67;;;13.57;;
2622;SDS011;1321;48.690;9.022;2022-12-18T10:53:55;23.73;;;13.10;;
2622;SDS011;1321;48.690;9.022;2022-12-18T10:56:29;25.70;;;17.67;;
2622;SDS011;1321;48.690;9.022;2022-12-18T10:58:59;24.40;;;13.98;;
2622;SDS011;1321;48.690;9.022;2022-12-18T11:01:33;26.98;;;14.45;;
2622;SDS011;1321;48.690;9.022;2022-12-18T11:04:16;16.90;;;12.30;;
2622;SDS011;1321;48.690;9.022;2022-12-18T11:06:57;25.45;;;13.30;;
2622;SDS011;1321;48.690;9.022;2022-12-18T11:09:28;17.45;;;10.70;;
2622;SDS011;1321;48.690;9.022;2022-12-18T11:11:59;23.20;;;11.38;;
2622;SDS011;1321;48.690;9.022;2022-12-18T11:14:30;24.30;;;13.55;;
2622;SDS011;1321;48.690;9.022;2022-12-18T11:17:01;20.93;;;14.00;;
2622;SDS011;1321;48.690;9.022;2022-12-18T11:19:52;20.48;;;13.35;;
2622;SDS011;1321;48.690;9.022;2022-12-18T11:22:23;25.48;;;15.73;;
2622;SDS011;1321;48.690;9.022;2022-12-18T11:24:56;22.85;;;14.10;;
2622;SDS011;1321;48.690;9.022;2022-12-18T11:27:49;21.65;;;11.02;;
2622;SDS011;1321;48.690;9.022;2022-12-18T11:30:22;22.83;;;13.95;;
2622;SDS011;1321;48.690;9.022;2022-12-18T11:32:53;19.80;;;11.07;;
2622;SDS011;1321;48.690;9.022;2022-12-18T11:35:37;22.77;;;12.55;;
2622;SDS011;1321;48.690;9.022;2022-12-18T11:38:19;19.92;;;12.13;;
2622;SDS011;1321;48.690;9.022;2022-12-18T11:40:54;31.92;;;14.75;;
2622;SDS011;1321;48.690;9.022;2022-12-18T11:43:27;23.83;;;13.45;;
2622;SDS011;1321;48.690;9.022;2022-12-18T11:45:59;28.10;;;12.85;;
2622;SDS011;1321;48.690;9.022;2022-12-18T11:48:32;25.45;;;13.25;;
2622;SDS011;1321;48.690;9.022;2022-12-18T11:51:08;26.77;;;15.05;;
2622;SDS011;1321;48.690;9.022;2022-12-18T11:53:42;24.60;;;14.20;;
2622;SDS011;1321;48.690;9.022;2022-12-18T11:56:22;24.50;;;12.57;;
2622;SDS011;1321;48.690;9.022;2022-12-18T11:58:59;22.35;;;12.75;;
2622;SDS011;1321;48.690;9.022;2022-12-18T12:01:44;27.50;;;14.10;;
2622;SDS011;1321;48.690;9.022;2022-12-18T12:07:21;24.88;;;13.85;;
2622;SDS011;1321;48.690;9.022;2022-12-18T12:09:57;29.02;;;12.77;;
2622;SDS011;1321;48.690;9.022;2022-12-18T12:12:46;28.15;;;13.93;;
2622;SDS011;1321;48.690;9.022;2022-12-18T12:15:29;22.40;;;12.82;;
2622;SDS011;1321;48.690;9.022;2022-12-18T12:18:12;27.10;;;13.48;;
2622;SDS011;1321;48.690;9.022;2022-12-18T12:20:49;26.60;;;14.90;;
2622;SDS011;1321;48.690;9.022;2022-12-18T12:23:30;25.90;;;13.93;;
2622;SDS011;1321;48.690;9.022;2022-12-18T12:26:11;21.27;;;11.48;;
2622;SDS011;1321;48.690;9.022;2022-12-18T12:31:50;23.33;;;12.27;;
2622;SDS011;1321;48.690;9.022;2022-12-18T12:34:31;23.50;;;12.75;;
2622;SDS011;1321;48.690;9.022;2022-12-18T12:37:13;25.63;;;14.63;;
2622;SDS011;1321;48.690;9.022;2022-12-18T12:39:53;22.92;;;12.23;;
2622;SDS011;1321;48.690;9.022;2022-12-18T12:42:25;21.00;;;13.85;;
2622;SDS011;1321;48.690;9.022;2022-12-18T12:45:18;20.63;;;13.07;;
2622;SDS011;1321;48.690;9.022;2022-12-18T12:47:50;27.00;;;13.60;;
2622;SDS011;1321;48.690;9.022;2022-12-18T12:50:20;25.30;;;14.32;;
2622;SDS011;1321;48.690;9.022;2022-12-18T12:52:50;27.67;;;14.80;;
2622;SDS011;1321;48.690;9.022;2022-12-18T12:55:21;29.35;;;15.55;;
2622;SDS011;1321;48.690;9.022;2022-12-18T12:57:55;29.70;;;15.02;;
2622;SDS011;1321;48.690;9.022;2022-12-18T13:00:33;24.02;;;15.25;;
2622;SDS011;1321;48.690;9.022;2022-12-18T13:03:08;26.83;;;16.65;;
2622;SDS011;1321;48.690;9.022;2022-12-18T13:05:43;28.77;;;15.48;;
2622;SDS011;1321;48.690;9.022;2022-12-18T13:08:22;22.77;;;13.02;;
2622;SDS011;1321;48.690;9.022;2022-12-18T13:10:52;24.83;;;15.43;;
2622;SDS011;1321;48.690;9.022;2022-12-18T13:13:48;27.80;;;14.77;;
2622;SDS011;1321;48.690;9.022;2022-12-18T13:16:19;21.45;;;12.95;;
2622;SDS011;1321;48.690;9.022;2022-12-18T13:18:50;24.30;;;13.50;;
2622;SDS011;1321;48.690;9.022;2022-12-18T13:21:21;25.52;;;12.55;;
2622;SDS011;1321;48.690;9.022;2022-12-18T13:23:52;27.48;;;16.48;;
2622;SDS011;1321;48.690;9.022;2022-12-18T13:26:29;26.88;;;17.15;;
2622;SDS011;1321;48.690;9.022;2022-12-18T13:29:00;31.25;;;14.85;;
2622;SDS011;1321;48.690;9.022;2022-12-18T13:34:29;32.63;;;14.30;;
2622;SDS011;1321;48.690;9.022;2022-12-18T13:39:57;29.30;;;16.30;;
2622;SDS011;1321;48.690;9.022;2022-12-18T13:42:35;26.23;;;13.43;;
2622;SDS011;1321;48.690;9.022;2022-12-18T13:45:37;22.67;;;13.13;;
2622;SDS011;1321;48.690;9.022;2022-12-18T13:48:16;30.05;;;15.68;;
2622;SDS011;1321;48.690;9.022;2022-12-18T13:50:59;27.17;;;14.30;;
2622;SDS011;1321;48.690;9.022;2022-12-18T13:53:32;24.42;;;14.40;;
2622;SDS011;1321;48.690;9.022;2022-12-18T13:56:03;27.33;;;16.25;;
2622;SDS011;1321;48.690;9.022;2022-12-18T13:58:33;26.48;;;14.65;;
2622;SDS011;1321;48.690;9.022;2022-12-18T14:01:01;33.45;;;15.40;;
2622;SDS011;1321;48.690;9.022;2022-12-18T14:03:31;31.05;;;15.98;;
2622;SDS011;1321;48.690;9.022;2022-12-18T14:06:05;33.63;;;15.68;;
2622;SDS011;1321;48.690;9.022;2022-12-18T14:08:37;25.27;;;13.80;;
2622;SDS011;1321;48.690;9.022;2022-12-18T14:11:11;29.83;;;15.25;;
2622;SDS011;1321;48.690;9.022;2022-12-18T14:13:48;26.27;;;16.52;;
2622;SDS011;1321;48.690;9.022;2022-12-18T14:16:17;32.92;;;15.00;;
2622;SDS011;1321;48.690;9.022;2022-12-18T14:18:46;28.05;;;15.73;;
2622;SDS011;1321;48.690;9.022;2022-12-18T14:21:25;30.17;;;16.95;;
2622;SDS011;1321;48.690;9.022;2022-12-18T14:24:06;30.10;;;17.23;;
2622;SDS011;1321;48.690;9.022;2022-12-18T14:26:43;27.15;;;16.95;;
2622;SDS011;1321;48.690;9.022;2022-12-18T14:29:23;28.05;;;16.95;;
2622;SDS011;1321;48.690;9.022;2022-12-18T14:32:05;34.08;;;17.02;;
2622;SDS011;1321;48.690;9.022;2022-12-18T14:34:42;27.85;;;16.13;;
2622;SDS011;1321;48.690;9.022;2022-12-18T14:37:13;35.30;;;19.05;;
2622;SDS011;1321;48.690;9.022;2022-12-18T14:39:53;34.40;;;17.08;;
2622;SDS011;1321;48.690;9.022;2022-12-18T14:42:23;31.48;;;17.95;;
2622;SDS011;1321;48.690;9.022;2022-12-18T14:48:08;30.30;;;17.00;;
2622;SDS011;1321;48.690;9.022;2022-12-18T14:51:00;28.88;;;17.60;;
2622;SDS011;1321;48.690;9.022;2022-12-18T14:53:35;26.48;;;16.20;;
2622;SDS011;1321;48.690;9.022;2022-12-18T14:56:13;28.90;;;15.93;;
2622;SDS011;1321;48.690;9.022;2022-12-18T14:58:49;28.90;;;16.38;;
2622;SDS011;1321;48.690;9.022;2022-12-18T15:01:21;35.97;;;18.13;;
2622;SDS011;1321;48.690;9.022;2022-12-18T15:03:55;28.95;;;17.73;;
2622;SDS011;1321;48.690;9.022;2022-12-18T15:06:29;34.58;;;18.27;;
2622;SDS011;1321;48.690;9.022;2022-12-18T15:09:02;30.27;;;16.60;;
2622;SDS011;1321;48.690;9.022;2022-12-18T15:11:44;28.30;;;16.20;;
2622;SDS011;1321;48.690;9.022;2022-12-18T15:14:23;35.25;;;17.83;;
2622;SDS011;1321;48.690;9.022;2022-12-18T15:17:03;28.60;;;16.65;;
2622;SDS011;1321;48.690;9.022;2022-12-18T15:19:34;31.58;;;15.90;;
2622;SDS011;1321;48.690;9.022;2022-12-18T15:22:14;31.08;;;18.25;;
2622;SDS011;1321;48.690;9.022;2022-12-18T15:24:48;29.17;;;16.58;;
2622;SDS011;1321;48.690;9.022;2022-12-18T15:27:24;32.78;;;16.58;;
2622;SDS011;1321;48.690;9.022;2022-12-18T15:30:11;34.83;;;18.08;;
2622;SDS011;1321;48.690;9.022;2022-12-18T15:32:45;32.90;;;18.42;;
2622;SDS011;1321;48.690;9.022;2022-12-18T15:35:15;34.58;;;17.58;;
2622;SDS011;1321;48.690;9.022;2022-12-18T15:37:45;34.47;;;17.95;;